sensor_id;sensor_type;location;lat;lon;timestamp;P1;durP1;ratioP1;P2;durP2;ratioP2
20298;SDS011;10308;42.688;23.256;2023-07-20T00:00:58;4.72;;;2.75;;
20298;SDS011;10308;42.688;23.256;2023-07-20T00:03:24;5.13;;;2.20;;
20298;SDS011;10308;42.688;23.256;2023-07-20T00:05:51;4.93;;;2.78;;
20298;SDS011;10308;42.688;23.256;2023-07-20T00:08:19;4.55;;;2.70;;
20298;SDS011;10308;42.688;23.256;2023-07-20T00:10:47;4.55;;;2.60;;
20298;SDS011;10308;42.688;23.256;2023-07-20T00:13:14;5.95;;;2.80;;
20298;SDS011;10308;42.688;23.256;2023-07-20T00:15:43;4.43;;;2.80;;
20298;SDS011;10308;42.688;23.256;2023-07-20T00:18:10;4.80;;;2.90;;
20298;SDS011;10308;42.688;23.256;2023-07-20T00:20:37;5.03;;;3.38;;
20298;SDS011;10308;42.688;23.256;2023-07-20T00:23:04;7.22;;;3.28;;
20298;SDS011;10308;42.688;23.256;2023-07-20T00:25:32;5.65;;;3.08;;
20298;SDS011;10308;42.688;23.256;2023-07-20T00:27:59;6.15;;;2.95;;
20298;SDS011;10308;42.688;23.256;2023-07-20T00:30:26;4.65;;;2.60;;
20298;SDS011;10308;42.688;23.256;2023-07-20T00:32:53;7.10;;;3.10;;
20298;SDS011;10308;42.688;23.256;2023-07-20T00:35:19;5.20;;;2.80;;
20298;SDS011;10308;42.688;23.256;2023-07-20T00:37:46;5.45;;;2.97;;
20298;SDS011;10308;42.688;23.256;2023-07-20T00:40:13;3.22;;;2.60;;
20298;SDS011;10308;42.688;23.256;2023-07-20T00:42:41;5.03;;;2.85;;
20298;SDS011;10308;42.688;23.256;2023-07-20T00:45:08;3.95;;;2.83;;
20298;SDS011;10308;42.688;23.256;2023-07-20T00:47:35;3.63;;;2.30;;
20298;SDS011;10308;42.688;23.256;2023-07-20T00:50:03;4.50;;;2.40;;
20298;SDS011;10308;42.688;23.256;2023-07-20T00:52:31;4.93;;;3.42;;
20298;SDS011;10308;42.688;23.256;2023-07-20T00:54:57;5.95;;;2.83;;
20298;SDS011;10308;42.688;23.256;2023-07-20T00:57:24;4.00;;;2.47;;
20298;SDS011;10308;42.688;23.256;2023-07-20T00:59:53;4.72;;;2.50;;
20298;SDS011;10308;42.688;23.256;2023-07-20T01:02:19;5.13;;;3.00;;
20298;SDS011;10308;42.688;23.256;2023-07-20T01:04:46;4.72;;;2.70;;
20298;SDS011;10308;42.688;23.256;2023-07-20T01:07:14;3.72;;;2.35;;
20298;SDS011;10308;42.688;23.256;2023-07-20T02:11:27;6.30;;;2.88;;
20298;SDS011;10308;42.688;23.256;2023-07-20T02:13:54;5.00;;;2.75;;
20298;SDS011;10308;42.688;23.256;2023-07-20T02:16:20;5.63;;;3.00;;
20298;SDS011;10308;42.688;23.256;2023-07-20T02:18:47;4.38;;;3.15;;
20298;SDS011;10308;42.688;23.256;2023-07-20T02:21:14;6.43;;;3.80;;
20298;SDS011;10308;42.688;23.256;2023-07-20T02:23:41;6.22;;;4.03;;
20298;SDS011;10308;42.688;23.256;2023-07-20T02:26:07;5.60;;;3.40;;
20298;SDS011;10308;42.688;23.256;2023-07-20T02:28:36;5.22;;;3.67;;
20298;SDS011;10308;42.688;23.256;2023-07-20T02:31:02;6.82;;;3.72;;
20298;SDS011;10308;42.688;23.256;2023-07-20T02:33:29;5.50;;;2.85;;
20298;SDS011;10308;42.688;23.256;2023-07-20T02:35:56;5.38;;;3.17;;
20298;SDS011;10308;42.688;23.256;2023-07-20T02:38:22;4.35;;;3.20;;
20298;SDS011;10308;42.688;23.256;2023-07-20T02:40:49;5.10;;;2.90;;
20298;SDS011;10308;42.688;23.256;2023-07-20T02:43:16;4.97;;;3.22;;
20298;SDS011;10308;42.688;23.256;2023-07-20T02:45:45;6.65;;;3.28;;
20298;SDS011;10308;42.688;23.256;2023-07-20T02:48:11;5.03;;;2.92;;
20298;SDS011;10308;42.688;23.256;2023-07-20T02:50:39;6.95;;;3.38;;
20298;SDS011;10308;42.688;23.256;2023-07-20T02:53:06;5.50;;;3.42;;
20298;SDS011;10308;42.688;23.256;2023-07-20T02:55:33;6.28;;;3.50;;
20298;SDS011;10308;42.688;23.256;2023-07-20T02:58:00;7.15;;;3.20;;
20298;SDS011;10308;42.688;23.256;2023-07-20T03:00:26;5.88;;;3.17;;
20298;SDS011;10308;42.688;23.256;2023-07-20T03:02:55;5.68;;;3.25;;
20298;SDS011;10308;42.688;23.256;2023-07-20T03:05:21;5.63;;;3.30;;
20298;SDS011;10308;42.688;23.256;2023-07-20T03:07:50;6.05;;;3.50;;
20298;SDS011;10308;42.688;23.256;2023-07-20T03:10:17;8.55;;;3.38;;
20298;SDS011;10308;42.688;23.256;2023-07-20T03:12:44;7.75;;;3.58;;
20298;SDS011;10308;42.688;23.256;2023-07-20T03:15:11;8.45;;;3.75;;
20298;SDS011;10308;42.688;23.256;2023-07-20T03:17:37;6.70;;;3.65;;
20298;SDS011;10308;42.688;23.256;2023-07-20T03:20:06;5.68;;;3.15;;
20298;SDS011;10308;42.688;23.256;2023-07-20T03:22:35;8.18;;;3.80;;
20298;SDS011;10308;42.688;23.256;2023-07-20T03:25:02;4.68;;;3.72;;
20298;SDS011;10308;42.688;23.256;2023-07-20T03:27:30;8.13;;;4.10;;
20298;SDS011;10308;42.688;23.256;2023-07-20T03:29:57;6.47;;;3.70;;
20298;SDS011;10308;42.688;23.256;2023-07-20T03:32:24;9.75;;;4.15;;
20298;SDS011;10308;42.688;23.256;2023-07-20T03:34:54;8.18;;;3.97;;
20298;SDS011;10308;42.688;23.256;2023-07-20T03:37:22;7.45;;;3.95;;
20298;SDS011;10308;42.688;23.256;2023-07-20T03:39:49;7.70;;;4.25;;
20298;SDS011;10308;42.688;23.256;2023-07-20T03:42:16;7.25;;;4.15;;
20298;SDS011;10308;42.688;23.256;2023-07-20T03:44:42;7.95;;;4.57;;
20298;SDS011;10308;42.688;23.256;2023-07-20T03:47:09;8.25;;;4.38;;
20298;SDS011;10308;42.688;23.256;2023-07-20T03:49:36;6.75;;;5.32;;
20298;SDS011;10308;42.688;23.256;2023-07-20T03:52:03;6.95;;;4.72;;
20298;SDS011;10308;42.688;23.256;2023-07-20T03:54:31;8.93;;;4.70;;
20298;SDS011;10308;42.688;23.256;2023-07-20T03:56:58;9.27;;;4.40;;
20298;SDS011;10308;42.688;23.256;2023-07-20T03:59:26;10.63;;;4.30;;
20298;SDS011;10308;42.688;23.256;2023-07-20T04:01:52;7.65;;;3.92;;
20298;SDS011;10308;42.688;23.256;2023-07-20T04:04:19;8.77;;;3.97;;
20298;SDS011;10308;42.688;23.256;2023-07-20T04:06:46;6.55;;;3.97;;
20298;SDS011;10308;42.688;23.256;2023-07-20T04:09:12;10.43;;;4.78;;
20298;SDS011;10308;42.688;23.256;2023-07-20T04:11:41;7.90;;;4.70;;
20298;SDS011;10308;42.688;23.256;2023-07-20T04:14:07;8.85;;;4.82;;
20298;SDS011;10308;42.688;23.256;2023-07-20T04:16:34;8.50;;;4.53;;
20298;SDS011;10308;42.688;23.256;2023-07-20T04:19:01;10.65;;;4.63;;
20298;SDS011;10308;42.688;23.256;2023-07-20T04:21:28;7.07;;;4.43;;
20298;SDS011;10308;42.688;23.256;2023-07-20T04:23:54;10.45;;;5.05;;
20298;SDS011;10308;42.688;23.256;2023-07-20T04:26:21;10.68;;;4.45;;
20298;SDS011;10308;42.688;23.256;2023-07-20T04:28:49;9.68;;;5.22;;
20298;SDS011;10308;42.688;23.256;2023-07-20T04:31:17;8.23;;;5.07;;
20298;SDS011;10308;42.688;23.256;2023-07-20T04:33:44;8.05;;;4.90;;
20298;SDS011;10308;42.688;23.256;2023-07-20T04:36:11;7.43;;;4.88;;
20298;SDS011;10308;42.688;23.256;2023-07-20T04:38:39;9.80;;;4.38;;
20298;SDS011;10308;42.688;23.256;2023-07-20T04:41:07;6.43;;;4.15;;
20298;SDS011;10308;42.688;23.256;2023-07-20T04:43:53;7.97;;;4.28;;
20298;SDS011;10308;42.688;23.256;2023-07-20T04:46:20;7.15;;;4.25;;
20298;SDS011;10308;42.688;23.256;2023-07-20T04:48:47;5.45;;;4.18;;
20298;SDS011;10308;42.688;23.256;2023-07-20T04:51:14;8.82;;;4.95;;
20298;SDS011;10308;42.688;23.256;2023-07-20T04:53:42;5.22;;;4.20;;
20298;SDS011;10308;42.688;23.256;2023-07-20T04:56:09;8.80;;;4.82;;
20298;SDS011;10308;42.688;23.256;2023-07-20T04:58:36;9.38;;;4.50;;
20298;SDS011;10308;42.688;23.256;2023-07-20T05:01:04;9.25;;;4.65;;
20298;SDS011;10308;42.688;23.256;2023-07-20T05:03:31;7.38;;;4.30;;
20298;SDS011;10308;42.688;23.256;2023-07-20T05:05:58;8.02;;;4.28;;
20298;SDS011;10308;42.688;23.256;2023-07-20T05:08:25;10.15;;;4.10;;
20298;SDS011;10308;42.688;23.256;2023-07-20T05:10:52;6.22;;;4.25;;
20298;SDS011;10308;42.688;23.256;2023-07-20T05:13:19;6.68;;;4.20;;
20298;SDS011;10308;42.688;23.256;2023-07-20T05:15:46;5.53;;;3.78;;
20298;SDS011;10308;42.688;23.256;2023-07-20T05:18:14;6.60;;;4.25;;
20298;SDS011;10308;42.688;23.256;2023-07-20T05:20:45;5.93;;;4.53;;
20298;SDS011;10308;42.688;23.256;2023-07-20T05:23:12;5.78;;;4.20;;
20298;SDS011;10308;42.688;23.256;2023-07-20T05:25:39;7.47;;;3.85;;
20298;SDS011;10308;42.688;23.256;2023-07-20T05:28:06;6.05;;;3.47;;
20298;SDS011;10308;42.688;23.256;2023-07-20T05:30:32;8.00;;;3.67;;
20298;SDS011;10308;42.688;23.256;2023-07-20T05:32:59;7.55;;;3.58;;
20298;SDS011;10308;42.688;23.256;2023-07-20T05:35:28;6.95;;;3.90;;
20298;SDS011;10308;42.688;23.256;2023-07-20T05:37:54;5.65;;;3.60;;
20298;SDS011;10308;42.688;23.256;2023-07-20T05:40:21;7.25;;;3.53;;
20298;SDS011;10308;42.688;23.256;2023-07-20T05:42:48;6.55;;;4.07;;
20298;SDS011;10308;42.688;23.256;2023-07-20T05:45:17;5.38;;;3.72;;
20298;SDS011;10308;42.688;23.256;2023-07-20T05:47:43;9.48;;;3.88;;
20298;SDS011;10308;42.688;23.256;2023-07-20T05:50:10;5.28;;;4.20;;
20298;SDS011;10308;42.688;23.256;2023-07-20T05:52:41;8.50;;;3.72;;
20298;SDS011;10308;42.688;23.256;2023-07-20T05:55:08;9.18;;;3.80;;
20298;SDS011;10308;42.688;23.256;2023-07-20T05:57:34;5.35;;;3.63;;
20298;SDS011;10308;42.688;23.256;2023-07-20T06:00:06;6.28;;;3.47;;
20298;SDS011;10308;42.688;23.256;2023-07-20T06:02:34;9.52;;;3.95;;
20298;SDS011;10308;42.688;23.256;2023-07-20T06:05:00;5.82;;;3.80;;
20298;SDS011;10308;42.688;23.256;2023-07-20T06:07:27;6.70;;;4.30;;
20298;SDS011;10308;42.688;23.256;2023-07-20T06:09:56;5.85;;;3.55;;
20298;SDS011;10308;42.688;23.256;2023-07-20T06:12:23;5.63;;;3.47;;
20298;SDS011;10308;42.688;23.256;2023-07-20T06:14:50;7.53;;;4.05;;
20298;SDS011;10308;42.688;23.256;2023-07-20T06:17:16;7.70;;;4.40;;
20298;SDS011;10308;42.688;23.256;2023-07-20T06:19:43;7.18;;;3.95;;
20298;SDS011;10308;42.688;23.256;2023-07-20T06:22:10;4.80;;;3.35;;
20298;SDS011;10308;42.688;23.256;2023-07-20T06:24:37;7.55;;;3.90;;
20298;SDS011;10308;42.688;23.256;2023-07-20T06:27:06;8.57;;;3.78;;
20298;SDS011;10308;42.688;23.256;2023-07-20T06:29:33;8.80;;;4.22;;
20298;SDS011;10308;42.688;23.256;2023-07-20T06:32:00;9.95;;;4.43;;
20298;SDS011;10308;42.688;23.256;2023-07-20T06:34:26;9.98;;;4.28;;
20298;SDS011;10308;42.688;23.256;2023-07-20T06:36:54;5.97;;;3.70;;
20298;SDS011;10308;42.688;23.256;2023-07-20T06:39:21;6.00;;;4.07;;
20298;SDS011;10308;42.688;23.256;2023-07-20T06:41:48;8.18;;;4.50;;
20298;SDS011;10308;42.688;23.256;2023-07-20T06:44:16;5.95;;;3.95;;
20298;SDS011;10308;42.688;23.256;2023-07-20T06:46:43;6.28;;;3.88;;
20298;SDS011;10308;42.688;23.256;2023-07-20T06:49:10;8.45;;;4.10;;
20298;SDS011;10308;42.688;23.256;2023-07-20T06:51:50;10.40;;;3.97;;
20298;SDS011;10308;42.688;23.256;2023-07-20T06:54:17;5.43;;;3.65;;
20298;SDS011;10308;42.688;23.256;2023-07-20T06:56:44;6.13;;;3.72;;
20298;SDS011;10308;42.688;23.256;2023-07-20T06:59:10;7.47;;;4.32;;
20298;SDS011;10308;42.688;23.256;2023-07-20T07:01:39;6.10;;;3.38;;
20298;SDS011;10308;42.688;23.256;2023-07-20T07:04:05;7.07;;;4.22;;
20298;SDS011;10308;42.688;23.256;2023-07-20T07:06:32;5.38;;;4.03;;
20298;SDS011;10308;42.688;23.256;2023-07-20T07:08:59;7.50;;;4.22;;
20298;SDS011;10308;42.688;23.256;2023-07-20T07:11:26;5.55;;;3.88;;
20298;SDS011;10308;42.688;23.256;2023-07-20T07:13:53;7.15;;;3.88;;
20298;SDS011;10308;42.688;23.256;2023-07-20T07:16:20;5.70;;;3.85;;
20298;SDS011;10308;42.688;23.256;2023-07-20T07:18:49;7.10;;;4.00;;
20298;SDS011;10308;42.688;23.256;2023-07-20T07:21:17;5.93;;;4.07;;
20298;SDS011;10308;42.688;23.256;2023-07-20T07:23:43;6.78;;;4.00;;
20298;SDS011;10308;42.688;23.256;2023-07-20T07:26:10;7.40;;;4.25;;
20298;SDS011;10308;42.688;23.256;2023-07-20T07:28:37;8.10;;;3.92;;
20298;SDS011;10308;42.688;23.256;2023-07-20T07:31:04;7.13;;;3.97;;
20298;SDS011;10308;42.688;23.256;2023-07-20T07:33:31;4.95;;;3.67;;
20298;SDS011;10308;42.688;23.256;2023-07-20T07:36:00;5.93;;;3.90;;
20298;SDS011;10308;42.688;23.256;2023-07-20T07:38:26;5.57;;;3.90;;
20298;SDS011;10308;42.688;23.256;2023-07-20T07:40:53;6.53;;;3.90;;
20298;SDS011;10308;42.688;23.256;2023-07-20T07:43:20;5.10;;;3.63;;
20298;SDS011;10308;42.688;23.256;2023-07-20T07:45:47;7.63;;;3.53;;
20298;SDS011;10308;42.688;23.256;2023-07-20T07:48:13;6.93;;;4.28;;
20298;SDS011;10308;42.688;23.256;2023-07-20T07:50:40;5.78;;;4.07;;
20298;SDS011;10308;42.688;23.256;2023-07-20T07:53:08;8.77;;;4.32;;
20298;SDS011;10308;42.688;23.256;2023-07-20T07:55:35;6.43;;;3.83;;
20298;SDS011;10308;42.688;23.256;2023-07-20T07:58:02;6.43;;;4.18;;
20298;SDS011;10308;42.688;23.256;2023-07-20T08:00:29;8.32;;;4.60;;
20298;SDS011;10308;42.688;23.256;2023-07-20T08:02:55;6.80;;;4.10;;
20298;SDS011;10308;42.688;23.256;2023-07-20T08:05:22;7.03;;;4.30;;
20298;SDS011;10308;42.688;23.256;2023-07-20T08:07:50;6.18;;;3.88;;
20298;SDS011;10308;42.688;23.256;2023-07-20T08:10:19;7.82;;;4.10;;
20298;SDS011;10308;42.688;23.256;2023-07-20T08:12:45;10.10;;;4.53;;
20298;SDS011;10308;42.688;23.256;2023-07-20T08:15:12;6.00;;;4.13;;
20298;SDS011;10308;42.688;23.256;2023-07-20T08:17:40;10.38;;;4.30;;
20298;SDS011;10308;42.688;23.256;2023-07-20T08:20:09;8.52;;;3.50;;
20298;SDS011;10308;42.688;23.256;2023-07-20T08:22:37;7.15;;;3.90;;
20298;SDS011;10308;42.688;23.256;2023-07-20T08:25:04;6.32;;;3.58;;
20298;SDS011;10308;42.688;23.256;2023-07-20T08:27:33;8.18;;;3.53;;
20298;SDS011;10308;42.688;23.256;2023-07-20T08:29:59;6.43;;;3.45;;
20298;SDS011;10308;42.688;23.256;2023-07-20T08:32:27;6.40;;;3.35;;
20298;SDS011;10308;42.688;23.256;2023-07-20T08:34:54;6.30;;;3.20;;
20298;SDS011;10308;42.688;23.256;2023-07-20T08:37:22;4.97;;;2.90;;
20298;SDS011;10308;42.688;23.256;2023-07-20T08:39:51;6.22;;;3.13;;
20298;SDS011;10308;42.688;23.256;2023-07-20T08:42:18;5.55;;;3.35;;
20298;SDS011;10308;42.688;23.256;2023-07-20T08:44:46;5.45;;;3.20;;
20298;SDS011;10308;42.688;23.256;2023-07-20T08:47:15;6.28;;;3.60;;
20298;SDS011;10308;42.688;23.256;2023-07-20T08:49:42;7.30;;;3.28;;
20298;SDS011;10308;42.688;23.256;2023-07-20T08:52:09;7.40;;;3.30;;
20298;SDS011;10308;42.688;23.256;2023-07-20T08:54:36;5.28;;;3.38;;
20298;SDS011;10308;42.688;23.256;2023-07-20T08:57:04;4.97;;;3.60;;
20298;SDS011;10308;42.688;23.256;2023-07-20T08:59:32;7.47;;;4.15;;
20298;SDS011;10308;42.688;23.256;2023-07-20T09:02:02;4.38;;;3.40;;
20298;SDS011;10308;42.688;23.256;2023-07-20T09:04:29;4.97;;;3.30;;
20298;SDS011;10308;42.688;23.256;2023-07-20T09:06:56;6.13;;;3.08;;
20298;SDS011;10308;42.688;23.256;2023-07-20T09:09:23;5.22;;;3.85;;
20298;SDS011;10308;42.688;23.256;2023-07-20T09:11:50;4.55;;;2.67;;
20298;SDS011;10308;42.688;23.256;2023-07-20T09:14:16;6.22;;;3.20;;
20298;SDS011;10308;42.688;23.256;2023-07-20T09:16:47;5.50;;;3.05;;
20298;SDS011;10308;42.688;23.256;2023-07-20T09:19:16;7.97;;;3.00;;
20298;SDS011;10308;42.688;23.256;2023-07-20T09:21:44;6.88;;;3.33;;
20298;SDS011;10308;42.688;23.256;2023-07-20T09:24:11;8.00;;;3.65;;
20298;SDS011;10308;42.688;23.256;2023-07-20T09:26:40;8.60;;;3.70;;
20298;SDS011;10308;42.688;23.256;2023-07-20T09:29:08;6.40;;;3.10;;
20298;SDS011;10308;42.688;23.256;2023-07-20T09:31:35;4.43;;;3.13;;
20298;SDS011;10308;42.688;23.256;2023-07-20T09:34:02;5.45;;;2.50;;
20298;SDS011;10308;42.688;23.256;2023-07-20T09:36:31;5.30;;;3.08;;
20298;SDS011;10308;42.688;23.256;2023-07-20T09:38:59;4.57;;;3.25;;
20298;SDS011;10308;42.688;23.256;2023-07-20T09:41:27;6.35;;;3.55;;
20298;SDS011;10308;42.688;23.256;2023-07-20T09:43:53;6.35;;;3.25;;
20298;SDS011;10308;42.688;23.256;2023-07-20T09:46:20;7.03;;;3.25;;
20298;SDS011;10308;42.688;23.256;2023-07-20T09:48:51;5.97;;;3.38;;
20298;SDS011;10308;42.688;23.256;2023-07-20T09:51:18;6.32;;;3.22;;
20298;SDS011;10308;42.688;23.256;2023-07-20T09:53:47;4.90;;;3.20;;
20298;SDS011;10308;42.688;23.256;2023-07-20T09:56:15;7.82;;;3.45;;
20298;SDS011;10308;42.688;23.256;2023-07-20T09:58:44;5.38;;;3.25;;
20298;SDS011;10308;42.688;23.256;2023-07-20T10:01:12;5.47;;;3.15;;
20298;SDS011;10308;42.688;23.256;2023-07-20T10:03:41;3.88;;;2.67;;
20298;SDS011;10308;42.688;23.256;2023-07-20T10:06:10;4.43;;;3.03;;
20298;SDS011;10308;42.688;23.256;2023-07-20T11:10:16;4.50;;;2.90;;
20298;SDS011;10308;42.688;23.256;2023-07-20T11:12:53;4.95;;;3.08;;
20298;SDS011;10308;42.688;23.256;2023-07-20T11:15:47;5.32;;;3.03;;
20298;SDS011;10308;42.688;23.256;2023-07-20T11:18:14;5.28;;;2.88;;
20298;SDS011;10308;42.688;23.256;2023-07-20T11:20:41;5.88;;;3.20;;
20298;SDS011;10308;42.688;23.256;2023-07-20T11:23:08;5.03;;;3.60;;
20298;SDS011;10308;42.688;23.256;2023-07-20T11:25:40;5.85;;;3.17;;
20298;SDS011;10308;42.688;23.256;2023-07-20T11:28:07;4.22;;;2.80;;
20298;SDS011;10308;42.688;23.256;2023-07-20T11:30:36;5.78;;;3.00;;
20298;SDS011;10308;42.688;23.256;2023-07-20T11:33:03;6.70;;;3.17;;
20298;SDS011;10308;42.688;23.256;2023-07-20T11:35:29;6.40;;;3.28;;
20298;SDS011;10308;42.688;23.256;2023-07-20T11:37:56;5.93;;;3.30;;
20298;SDS011;10308;42.688;23.256;2023-07-20T11:40:23;7.28;;;3.80;;
20298;SDS011;10308;42.688;23.256;2023-07-20T11:42:51;5.32;;;3.35;;
20298;SDS011;10308;42.688;23.256;2023-07-20T11:45:19;4.47;;;3.33;;
20298;SDS011;10308;42.688;23.256;2023-07-20T11:47:46;4.82;;;3.50;;
20298;SDS011;10308;42.688;23.256;2023-07-20T11:50:13;5.70;;;3.60;;
20298;SDS011;10308;42.688;23.256;2023-07-20T11:52:41;6.72;;;3.70;;
20298;SDS011;10308;42.688;23.256;2023-07-20T11:55:08;5.50;;;3.60;;
20298;SDS011;10308;42.688;23.256;2023-07-20T11:57:35;4.70;;;3.58;;
20298;SDS011;10308;42.688;23.256;2023-07-20T12:00:07;5.88;;;3.80;;
20298;SDS011;10308;42.688;23.256;2023-07-20T12:02:37;7.75;;;3.85;;
20298;SDS011;10308;42.688;23.256;2023-07-20T12:05:04;4.90;;;3.20;;
20298;SDS011;10308;42.688;23.256;2023-07-20T12:07:34;4.93;;;3.60;;
20298;SDS011;10308;42.688;23.256;2023-07-20T12:10:04;5.15;;;3.58;;
20298;SDS011;10308;42.688;23.256;2023-07-20T12:12:32;6.78;;;3.92;;
20298;SDS011;10308;42.688;23.256;2023-07-20T12:15:13;4.05;;;3.40;;
20298;SDS011;10308;42.688;23.256;2023-07-20T12:17:43;5.68;;;3.80;;
20298;SDS011;10308;42.688;23.256;2023-07-20T12:20:10;5.28;;;3.50;;
20298;SDS011;10308;42.688;23.256;2023-07-20T12:22:38;6.68;;;3.90;;
20298;SDS011;10308;42.688;23.256;2023-07-20T12:25:06;5.97;;;3.40;;
20298;SDS011;10308;42.688;23.256;2023-07-20T12:27:33;5.55;;;3.47;;
20298;SDS011;10308;42.688;23.256;2023-07-20T12:30:02;4.95;;;3.40;;
20298;SDS011;10308;42.688;23.256;2023-07-20T12:32:31;4.50;;;2.92;;
20298;SDS011;10308;42.688;23.256;2023-07-20T12:34:58;4.68;;;2.92;;
20298;SDS011;10308;42.688;23.256;2023-07-20T12:37:25;7.68;;;3.53;;
20298;SDS011;10308;42.688;23.256;2023-07-20T12:39:52;8.48;;;3.53;;
20298;SDS011;10308;42.688;23.256;2023-07-20T12:42:19;6.75;;;3.00;;
20298;SDS011;10308;42.688;23.256;2023-07-20T12:44:46;4.53;;;3.20;;
20298;SDS011;10308;42.688;23.256;2023-07-20T12:47:13;5.60;;;3.20;;
20298;SDS011;10308;42.688;23.256;2023-07-20T12:49:41;4.10;;;3.10;;
20298;SDS011;10308;42.688;23.256;2023-07-20T12:52:10;5.63;;;3.17;;
20298;SDS011;10308;42.688;23.256;2023-07-20T12:54:37;5.03;;;2.95;;
20298;SDS011;10308;42.688;23.256;2023-07-20T12:57:03;4.43;;;2.95;;
20298;SDS011;10308;42.688;23.256;2023-07-20T12:59:31;7.90;;;3.13;;
20298;SDS011;10308;42.688;23.256;2023-07-20T13:01:57;4.00;;;2.92;;
20298;SDS011;10308;42.688;23.256;2023-07-20T13:04:24;5.18;;;3.03;;
20298;SDS011;10308;42.688;23.256;2023-07-20T13:06:52;5.28;;;3.17;;
20298;SDS011;10308;42.688;23.256;2023-07-20T13:09:19;6.15;;;3.17;;
20298;SDS011;10308;42.688;23.256;2023-07-20T13:11:48;7.07;;;3.33;;
20298;SDS011;10308;42.688;23.256;2023-07-20T13:14:14;5.47;;;3.30;;
20298;SDS011;10308;42.688;23.256;2023-07-20T13:16:41;6.13;;;3.67;;
20298;SDS011;10308;42.688;23.256;2023-07-20T13:19:08;4.38;;;2.88;;
20298;SDS011;10308;42.688;23.256;2023-07-20T13:21:35;6.93;;;3.33;;
20298;SDS011;10308;42.688;23.256;2023-07-20T13:24:03;5.53;;;2.95;;
20298;SDS011;10308;42.688;23.256;2023-07-20T13:26:30;4.85;;;2.97;;
20298;SDS011;10308;42.688;23.256;2023-07-20T13:28:57;3.65;;;2.97;;
20298;SDS011;10308;42.688;23.256;2023-07-20T13:31:24;6.03;;;2.95;;
20298;SDS011;10308;42.688;23.256;2023-07-20T13:33:50;4.80;;;2.78;;
20298;SDS011;10308;42.688;23.256;2023-07-20T13:36:18;7.38;;;3.20;;
20298;SDS011;10308;42.688;23.256;2023-07-20T13:38:45;5.65;;;2.83;;
20298;SDS011;10308;42.688;23.256;2023-07-20T13:41:15;6.57;;;3.00;;
20298;SDS011;10308;42.688;23.256;2023-07-20T13:43:42;4.68;;;2.75;;
20298;SDS011;10308;42.688;23.256;2023-07-20T13:46:09;6.03;;;4.13;;
20298;SDS011;10308;42.688;23.256;2023-07-20T13:48:36;3.00;;;2.70;;
20298;SDS011;10308;42.688;23.256;2023-07-20T13:51:03;4.20;;;2.70;;
20298;SDS011;10308;42.688;23.256;2023-07-20T13:53:29;5.13;;;3.10;;
20298;SDS011;10308;42.688;23.256;2023-07-20T13:55:56;5.18;;;2.60;;
20298;SDS011;10308;42.688;23.256;2023-07-20T13:58:24;4.82;;;2.95;;
20298;SDS011;10308;42.688;23.256;2023-07-20T14:00:51;6.57;;;2.85;;
20298;SDS011;10308;42.688;23.256;2023-07-20T14:03:18;5.45;;;2.83;;
20298;SDS011;10308;42.688;23.256;2023-07-20T14:05:45;4.60;;;2.92;;
20298;SDS011;10308;42.688;23.256;2023-07-20T14:08:11;4.82;;;2.55;;
20298;SDS011;10308;42.688;23.256;2023-07-20T14:10:38;4.63;;;2.78;;
20298;SDS011;10308;42.688;23.256;2023-07-20T14:13:05;4.90;;;2.97;;
20298;SDS011;10308;42.688;23.256;2023-07-20T14:15:33;4.97;;;2.97;;
20298;SDS011;10308;42.688;23.256;2023-07-20T14:18:01;4.22;;;2.70;;
20298;SDS011;10308;42.688;23.256;2023-07-20T14:20:27;7.40;;;2.90;;
20298;SDS011;10308;42.688;23.256;2023-07-20T14:22:54;8.20;;;2.92;;
20298;SDS011;10308;42.688;23.256;2023-07-20T14:25:21;6.43;;;3.70;;
20298;SDS011;10308;42.688;23.256;2023-07-20T14:27:47;4.53;;;2.95;;
20298;SDS011;10308;42.688;23.256;2023-07-20T14:30:14;4.05;;;2.95;;
20298;SDS011;10308;42.688;23.256;2023-07-20T14:32:42;7.25;;;3.13;;
20298;SDS011;10308;42.688;23.256;2023-07-20T14:35:09;5.97;;;3.03;;
20298;SDS011;10308;42.688;23.256;2023-07-20T14:37:36;5.05;;;2.53;;
20298;SDS011;10308;42.688;23.256;2023-07-20T14:40:03;5.50;;;3.08;;
20298;SDS011;10308;42.688;23.256;2023-07-20T14:42:32;4.70;;;3.03;;
20298;SDS011;10308;42.688;23.256;2023-07-20T14:44:58;2.85;;;2.60;;
20298;SDS011;10308;42.688;23.256;2023-07-20T15:45:46;3.45;;;3.10;;
20298;SDS011;10308;42.688;23.256;2023-07-20T15:48:13;6.78;;;3.33;;
20298;SDS011;10308;42.688;23.256;2023-07-20T15:50:40;3.75;;;2.72;;
20298;SDS011;10308;42.688;23.256;2023-07-20T15:53:07;4.68;;;2.80;;
20298;SDS011;10308;42.688;23.256;2023-07-20T15:55:34;3.83;;;2.60;;
20298;SDS011;10308;42.688;23.256;2023-07-20T15:58:01;3.88;;;2.63;;
20298;SDS011;10308;42.688;23.256;2023-07-20T16:00:28;4.35;;;3.22;;
20298;SDS011;10308;42.688;23.256;2023-07-20T16:02:56;4.20;;;3.15;;
20298;SDS011;10308;42.688;23.256;2023-07-20T16:05:23;3.80;;;3.03;;
20298;SDS011;10308;42.688;23.256;2023-07-20T16:07:50;3.58;;;2.70;;
20298;SDS011;10308;42.688;23.256;2023-07-20T16:10:17;4.43;;;2.78;;
20298;SDS011;10308;42.688;23.256;2023-07-20T16:12:44;5.10;;;2.85;;
20298;SDS011;10308;42.688;23.256;2023-07-20T16:15:11;4.00;;;2.58;;
20298;SDS011;10308;42.688;23.256;2023-07-20T16:17:38;3.92;;;2.78;;
20298;SDS011;10308;42.688;23.256;2023-07-20T16:20:07;4.43;;;2.70;;
20298;SDS011;10308;42.688;23.256;2023-07-20T16:22:35;6.10;;;2.97;;
20298;SDS011;10308;42.688;23.256;2023-07-20T16:25:02;8.82;;;5.43;;
20298;SDS011;10308;42.688;23.256;2023-07-20T16:27:29;7.05;;;3.22;;
20298;SDS011;10308;42.688;23.256;2023-07-20T16:29:56;12.75;;;6.57;;
20298;SDS011;10308;42.688;23.256;2023-07-20T17:30:46;3.15;;;2.55;;
20298;SDS011;10308;42.688;23.256;2023-07-20T17:33:22;4.07;;;2.72;;
20298;SDS011;10308;42.688;23.256;2023-07-20T17:35:49;7.55;;;3.42;;
20298;SDS011;10308;42.688;23.256;2023-07-20T17:38:16;5.45;;;3.22;;
20298;SDS011;10308;42.688;23.256;2023-07-20T17:40:42;4.45;;;3.30;;
20298;SDS011;10308;42.688;23.256;2023-07-20T17:43:11;4.30;;;3.35;;
20298;SDS011;10308;42.688;23.256;2023-07-20T17:45:37;4.00;;;3.00;;
20298;SDS011;10308;42.688;23.256;2023-07-20T17:48:05;4.78;;;3.17;;
20298;SDS011;10308;42.688;23.256;2023-07-20T17:50:32;4.63;;;3.20;;
20298;SDS011;10308;42.688;23.256;2023-07-20T17:52:59;4.13;;;3.58;;
20298;SDS011;10308;42.688;23.256;2023-07-20T17:55:26;5.88;;;3.40;;
20298;SDS011;10308;42.688;23.256;2023-07-20T17:57:53;4.45;;;3.35;;
20298;SDS011;10308;42.688;23.256;2023-07-20T18:00:20;3.95;;;2.85;;
20298;SDS011;10308;42.688;23.256;2023-07-20T18:02:48;4.18;;;3.65;;
20298;SDS011;10308;42.688;23.256;2023-07-20T18:05:18;5.78;;;3.60;;
20298;SDS011;10308;42.688;23.256;2023-07-20T18:07:44;3.75;;;2.90;;
20298;SDS011;10308;42.688;23.256;2023-07-20T18:10:11;3.95;;;3.00;;
20298;SDS011;10308;42.688;23.256;2023-07-20T18:12:39;3.33;;;3.03;;
20298;SDS011;10308;42.688;23.256;2023-07-20T18:15:06;4.72;;;3.75;;
20298;SDS011;10308;42.688;23.256;2023-07-20T18:17:34;4.68;;;2.90;;
20298;SDS011;10308;42.688;23.256;2023-07-20T18:20:01;3.13;;;2.83;;
20298;SDS011;10308;42.688;23.256;2023-07-20T18:22:30;3.13;;;2.83;;
20298;SDS011;10308;42.688;23.256;2023-07-20T18:24:57;4.93;;;3.03;;
20298;SDS011;10308;42.688;23.256;2023-07-20T18:27:24;4.90;;;3.75;;
20298;SDS011;10308;42.688;23.256;2023-07-20T18:29:52;3.83;;;2.75;;
20298;SDS011;10308;42.688;23.256;2023-07-20T18:32:19;5.15;;;3.38;;
20298;SDS011;10308;42.688;23.256;2023-07-20T18:34:46;3.63;;;3.13;;